Ronnie Rogers — WDD2270 — position and weather

sailwx.info

Track history (hours):
 
Tides and Currents Weather Stations Pressure Air Temp Water Temp Dewpoint Dewpoint Depression Visibility Wind Speed Wind Dir Waves Ship Positions

Ronnie Rogers

More information available from US FCC via Universal Licensing System and Coast Guard Vessel Documentation Center.

Last reported at 2014-Aug-21 21:33 UTC. Time now 2014-Aug-21 22:01 UTC.
Position N 29°44' W 095°12'.

Length 29 m; draft 3 m.

Type: Towing. MMSI: 367113160.

Date/timePositionNaut miles runAvg speedWind from/ knotsBaromVisibWave heightAir tempDewpointWater temp
2014-Aug-21 21:33N 29°44' W 095°12'0 0.0
2014-Aug-21 20:33N 29°44' W 095°12'0 0.3
2014-Aug-21 19:33N 29°44' W 095°12'0 0.0
2014-Aug-21 18:33N 29°44' W 095°12'0 0.2
2014-Aug-21 17:33N 29°44' W 095°12'1 1.1
2014-Aug-21 16:33N 29°45' W 095°11'5 5.5
2014-Aug-21 15:33N 29°46' W 095°05'2 1.8
2014-Aug-21 14:33N 29°47' W 095°04'4 3.8
2014-Aug-21 13:33N 29°44' W 095°07'4 4.1
2014-Aug-21 12:33N 29°45' W 095°11'1 1.0
2014-Aug-21 11:33N 29°44' W 095°12'0 0.0
2014-Aug-21 10:33N 29°44' W 095°12'0 0.2
2014-Aug-21 09:33N 29°44' W 095°12'0 0.0
2014-Aug-21 08:33N 29°44' W 095°12'0 0.0
2014-Aug-21 07:33N 29°44' W 095°12'0 0.0
2014-Aug-21 06:33N 29°44' W 095°12'0 0.0
2014-Aug-21 05:33N 29°44' W 095°12'0 0.0
2014-Aug-21 04:33N 29°44' W 095°12'0 0.0
2014-Aug-21 03:33N 29°44' W 095°12'0 0.0
2014-Aug-21 02:33N 29°44' W 095°12'0 0.0
2014-Aug-21 01:33N 29°44' W 095°12'0 0.2
2014-Aug-21 00:33N 29°44' W 095°12'0 0.0
2014-Aug-20 23:33N 29°44' W 095°12'0 0.0
2014-Aug-20 22:33N 29°44' W 095°12'0 0.0
2014-Aug-20 21:33N 29°44' W 095°12'0 0.0
2014-Aug-20 20:33N 29°44' W 095°12'0 0.0
2014-Aug-20 19:33N 29°44' W 095°12'0 0.2
2014-Aug-20 18:33N 29°44' W 095°12'1 0.7
2014-Aug-20 17:33N 29°45' W 095°12'6 5.9
2014-Aug-20 16:33N 29°46' W 095°05'2 1.6
2014-Aug-20 15:33N 29°47' W 095°04'2 2.1
2014-Aug-20 14:33N 29°46' W 095°06'0 0.0
2014-Aug-20 13:33N 29°46' W 095°06'0 0.0
2014-Aug-20 12:33N 29°46' W 095°06'0 0.0
2014-Aug-20 11:33N 29°46' W 095°06'0 0.0
2014-Aug-20 10:33N 29°46' W 095°06'0 0.0
2014-Aug-20 09:33N 29°46' W 095°06'0 0.0
2014-Aug-20 08:33N 29°46' W 095°06'0 0.0
2014-Aug-20 06:32N 29°46' W 095°06'0 0.0
2014-Aug-20 05:22N 29°46' W 095°06'0 0.0
2014-Aug-20 04:33N 29°46' W 095°06'0 0.0
2014-Aug-20 03:33N 29°46' W 095°06'0 0.0
2014-Aug-20 02:33N 29°46' W 095°06'1 0.8
2014-Aug-20 01:33N 29°46' W 095°06'0 0.2
2014-Aug-20 00:33N 29°45' W 095°06'2 2.4
2014-Aug-19 23:33N 29°47' W 095°04'3 2.9
2014-Aug-19 22:33N 29°44' W 095°04'6 5.7
2014-Aug-19 21:33N 29°40' W 094°59'7 7.2
2014-Aug-19 20:33N 29°34' W 094°55'7 7.0
2014-Aug-19 19:32N 29°28' W 094°51'  
Track history (hours):
 
Tides and Currents Weather Stations Pressure Air Temp Water Temp Dewpoint Dewpoint Depression Visibility Wind Speed Wind Dir Waves Ship Positions

Ronnie Rogers

More information available from US FCC via Universal Licensing System and Coast Guard Vessel Documentation Center.

Last reported at 2014-Aug-21 21:33 UTC. Time now 2014-Aug-21 22:01 UTC.
Position N 29°44' W 095°12'.

Length 29 m; draft 3 m.

Type: Towing. MMSI: 367113160.

Date/timePositionNaut miles runAvg speedWind from/ knotsBaromVisibWave heightAir tempDewpointWater temp
2014-Aug-21 21:33N 29°44' W 095°12'0 0.0
2014-Aug-21 20:33N 29°44' W 095°12'0 0.3
2014-Aug-21 19:33N 29°44' W 095°12'0 0.0
2014-Aug-21 18:33N 29°44' W 095°12'0 0.2
2014-Aug-21 17:33N 29°44' W 095°12'1 1.1
2014-Aug-21 16:33N 29°45' W 095°11'5 5.5
2014-Aug-21 15:33N 29°46' W 095°05'2 1.8
2014-Aug-21 14:33N 29°47' W 095°04'4 3.8
2014-Aug-21 13:33N 29°44' W 095°07'4 4.1
2014-Aug-21 12:33N 29°45' W 095°11'1 1.0
2014-Aug-21 11:33N 29°44' W 095°12'0 0.0
2014-Aug-21 10:33N 29°44' W 095°12'0 0.2
2014-Aug-21 09:33N 29°44' W 095°12'0 0.0
2014-Aug-21 08:33N 29°44' W 095°12'0 0.0
2014-Aug-21 07:33N 29°44' W 095°12'0 0.0
2014-Aug-21 06:33N 29°44' W 095°12'0 0.0
2014-Aug-21 05:33N 29°44' W 095°12'0 0.0
2014-Aug-21 04:33N 29°44' W 095°12'0 0.0
2014-Aug-21 03:33N 29°44' W 095°12'0 0.0
2014-Aug-21 02:33N 29°44' W 095°12'0 0.0
2014-Aug-21 01:33N 29°44' W 095°12'0 0.2
2014-Aug-21 00:33N 29°44' W 095°12'0 0.0
2014-Aug-20 23:33N 29°44' W 095°12'0 0.0
2014-Aug-20 22:33N 29°44' W 095°12'0 0.0
2014-Aug-20 21:33N 29°44' W 095°12'0 0.0
2014-Aug-20 20:33N 29°44' W 095°12'0 0.0
2014-Aug-20 19:33N 29°44' W 095°12'0 0.2
2014-Aug-20 18:33N 29°44' W 095°12'1 0.7
2014-Aug-20 17:33N 29°45' W 095°12'6 5.9
2014-Aug-20 16:33N 29°46' W 095°05'2 1.6
2014-Aug-20 15:33N 29°47' W 095°04'2 2.1
2014-Aug-20 14:33N 29°46' W 095°06'0 0.0
2014-Aug-20 13:33N 29°46' W 095°06'0 0.0
2014-Aug-20 12:33N 29°46' W 095°06'0 0.0
2014-Aug-20 11:33N 29°46' W 095°06'0 0.0
2014-Aug-20 10:33N 29°46' W 095°06'0 0.0
2014-Aug-20 09:33N 29°46' W 095°06'0 0.0
2014-Aug-20 08:33N 29°46' W 095°06'0 0.0
2014-Aug-20 06:32N 29°46' W 095°06'0 0.0
2014-Aug-20 05:22N 29°46' W 095°06'0 0.0
2014-Aug-20 04:33N 29°46' W 095°06'0 0.0
2014-Aug-20 03:33N 29°46' W 095°06'0 0.0
2014-Aug-20 02:33N 29°46' W 095°06'1 0.8
2014-Aug-20 01:33N 29°46' W 095°06'0 0.2
2014-Aug-20 00:33N 29°45' W 095°06'2 2.4
2014-Aug-19 23:33N 29°47' W 095°04'3 2.9
2014-Aug-19 22:33N 29°44' W 095°04'6 5.7
2014-Aug-19 21:33N 29°40' W 094°59'7 7.2
2014-Aug-19 20:33N 29°34' W 094°55'7 7.0
2014-Aug-19 19:32N 29°28' W 094°51'  

Dump ship's entire track history